sensor_id;sensor_type;location;lat;lon;timestamp;temperature;humidity
24632;DHT22;59977;48.782;9.190;2022-11-24T14:30:23;11.80;99.90
24632;DHT22;59977;48.782;9.190;2022-11-24T14:33:00;11.70;99.90
24632;DHT22;59977;48.782;9.190;2022-11-24T14:35:32;11.80;99.90
24632;DHT22;59977;48.782;9.190;2022-11-24T14:38:01;11.60;99.90
24632;DHT22;59977;48.782;9.190;2022-11-24T14:40:40;11.60;99.90
24632;DHT22;59977;48.782;9.190;2022-11-24T14:46:09;11.50;99.90
24632;DHT22;59977;48.782;9.190;2022-11-24T14:48:47;11.40;99.90
24632;DHT22;59977;48.782;9.190;2022-11-24T14:51:19;12.70;99.90
24632;DHT22;59977;48.782;9.190;2022-11-24T14:53:46;11.50;99.90
24632;DHT22;59977;48.782;9.190;2022-11-24T14:58:54;10.00;99.90
24632;DHT22;59977;48.782;9.190;2022-11-24T15:06:35;11.40;99.90
24632;DHT22;59977;48.782;9.190;2022-11-24T15:09:01;11.40;99.90
24632;DHT22;59977;48.782;9.190;2022-11-24T15:11:30;11.40;99.90
24632;DHT22;59977;48.782;9.190;2022-11-24T15:13:56;11.60;99.90
24632;DHT22;59977;48.782;9.190;2022-11-24T15:16:25;12.40;99.90
24632;DHT22;59977;48.782;9.190;2022-11-24T15:18:57;11.10;99.90
24632;DHT22;59977;48.782;9.190;2022-11-24T15:21:32;11.10;99.90
24632;DHT22;59977;48.782;9.190;2022-11-24T15:24:26;11.70;99.90
24632;DHT22;59977;48.782;9.190;2022-11-24T15:26:59;10.90;99.90
24632;DHT22;59977;48.782;9.190;2022-11-24T15:29:25;10.90;99.90
24632;DHT22;59977;48.782;9.190;2022-11-24T15:31:51;10.80;99.90
24632;DHT22;59977;48.782;9.190;2022-11-24T15:34:16;11.80;99.90
24632;DHT22;59977;48.782;9.190;2022-11-24T15:36:42;11.60;99.90
24632;DHT22;59977;48.782;9.190;2022-11-24T15:39:07;11.70;99.90
24632;DHT22;59977;48.782;9.190;2022-11-24T15:41:34;11.00;99.90
24632;DHT22;59977;48.782;9.190;2022-11-24T15:43:59;10.50;99.90
24632;DHT22;59977;48.782;9.190;2022-11-24T15:46:27;10.40;99.90
24632;DHT22;59977;48.782;9.190;2022-11-24T15:48:53;10.50;99.90
24632;DHT22;59977;48.782;9.190;2022-11-24T15:51:19;10.30;99.90
24632;DHT22;59977;48.782;9.190;2022-11-24T15:53:49;10.90;99.90
24632;DHT22;59977;48.782;9.190;2022-11-24T15:56:32;10.20;99.90
24632;DHT22;59977;48.782;9.190;2022-11-24T15:58:59;11.40;99.90
24632;DHT22;59977;48.782;9.190;2022-11-24T16:01:31;10.10;99.90
24632;DHT22;59977;48.782;9.190;2022-11-24T16:03:58;10.10;99.90
24632;DHT22;59977;48.782;9.190;2022-11-24T16:06:23;11.30;99.90
24632;DHT22;59977;48.782;9.190;2022-11-24T16:08:49;10.10;99.90
24632;DHT22;59977;48.782;9.190;2022-11-24T16:11:15;10.10;99.90
24632;DHT22;59977;48.782;9.190;2022-11-24T16:13:40;11.50;99.90
24632;DHT22;59977;48.782;9.190;2022-11-24T16:16:06;10.80;99.90
24632;DHT22;59977;48.782;9.190;2022-11-24T16:18:32;9.90;99.90
24632;DHT22;59977;48.782;9.190;2022-11-24T16:20:59;9.80;99.90
24632;DHT22;59977;48.782;9.190;2022-11-24T16:23:25;9.70;99.90
24632;DHT22;59977;48.782;9.190;2022-11-24T16:25:50;9.80;99.90
24632;DHT22;59977;48.782;9.190;2022-11-24T19:52:11;7.30;99.90
24632;DHT22;59977;48.782;9.190;2022-11-24T19:54:36;7.30;99.90
24632;DHT22;59977;48.782;9.190;2022-11-24T19:57:02;7.30;99.90
24632;DHT22;59977;48.782;9.190;2022-11-24T19:59:28;7.40;99.90
24632;DHT22;59977;48.782;9.190;2022-11-24T20:01:53;7.40;99.90
24632;DHT22;59977;48.782;9.190;2022-11-24T20:04:19;7.50;99.90
24632;DHT22;59977;48.782;9.190;2022-11-24T20:06:45;7.50;99.90
24632;DHT22;59977;48.782;9.190;2022-11-24T20:09:14;7.50;99.90
24632;DHT22;59977;48.782;9.190;2022-11-24T20:11:41;8.10;99.90
24632;DHT22;59977;48.782;9.190;2022-11-24T20:14:11;7.60;99.90
24632;DHT22;59977;48.782;9.190;2022-11-24T20:16:37;7.60;99.90
24632;DHT22;59977;48.782;9.190;2022-11-24T20:19:05;7.60;99.90
24632;DHT22;59977;48.782;9.190;2022-11-24T20:21:32;7.50;99.90
24632;DHT22;59977;48.782;9.190;2022-11-24T20:26:31;7.60;99.90
24632;DHT22;59977;48.782;9.190;2022-11-24T20:28:58;7.60;99.90
24632;DHT22;59977;48.782;9.190;2022-11-24T20:31:30;7.60;99.90
24632;DHT22;59977;48.782;9.190;2022-11-24T20:33:56;7.70;99.90
24632;DHT22;59977;48.782;9.190;2022-11-24T20:36:23;7.70;99.90
24632;DHT22;59977;48.782;9.190;2022-11-24T20:38:50;9.00;99.90
24632;DHT22;59977;48.782;9.190;2022-11-24T20:41:19;7.70;99.90
24632;DHT22;59977;48.782;9.190;2022-11-24T20:43:46;7.70;99.90
24632;DHT22;59977;48.782;9.190;2022-11-24T20:46:22;7.70;99.90
24632;DHT22;59977;48.782;9.190;2022-11-24T20:48:48;7.70;99.90
24632;DHT22;59977;48.782;9.190;2022-11-24T20:51:15;7.80;99.90
24632;DHT22;59977;48.782;9.190;2022-11-24T20:53:41;7.90;99.90
24632;DHT22;59977;48.782;9.190;2022-11-24T20:56:10;7.70;99.90
24632;DHT22;59977;48.782;9.190;2022-11-24T20:58:37;8.50;99.90
24632;DHT22;59977;48.782;9.190;2022-11-24T21:01:12;7.70;99.90
24632;DHT22;59977;48.782;9.190;2022-11-24T21:03:38;7.70;99.90
24632;DHT22;59977;48.782;9.190;2022-11-24T21:06:05;7.60;99.90
24632;DHT22;59977;48.782;9.190;2022-11-24T21:08:32;7.50;99.90
24632;DHT22;59977;48.782;9.190;2022-11-24T21:10:59;7.50;99.90
24632;DHT22;59977;48.782;9.190;2022-11-24T21:13:25;7.40;99.90
24632;DHT22;59977;48.782;9.190;2022-11-24T21:15:52;7.30;99.90
24632;DHT22;59977;48.782;9.190;2022-11-24T21:18:18;7.20;99.90
24632;DHT22;59977;48.782;9.190;2022-11-24T21:20:44;8.40;99.90
24632;DHT22;59977;48.782;9.190;2022-11-24T21:23:10;6.50;99.90
24632;DHT22;59977;48.782;9.190;2022-11-24T21:25:36;7.80;99.90
24632;DHT22;59977;48.782;9.190;2022-11-24T21:28:02;6.40;99.90
24632;DHT22;59977;48.782;9.190;2022-11-24T21:30:28;7.20;99.90
24632;DHT22;59977;48.782;9.190;2022-11-24T21:32:54;7.40;99.90
24632;DHT22;59977;48.782;9.190;2022-11-24T21:35:20;7.40;99.90
24632;DHT22;59977;48.782;9.190;2022-11-24T21:37:46;7.10;99.90
24632;DHT22;59977;48.782;9.190;2022-11-24T21:40:11;7.10;99.90
24632;DHT22;59977;48.782;9.190;2022-11-24T21:42:39;7.10;99.90
24632;DHT22;59977;48.782;9.190;2022-11-24T21:45:06;7.10;99.90
24632;DHT22;59977;48.782;9.190;2022-11-24T21:47:35;7.00;99.90
24632;DHT22;59977;48.782;9.190;2022-11-24T21:50:02;6.90;99.90
24632;DHT22;59977;48.782;9.190;2022-11-24T21:52:28;6.90;99.90
24632;DHT22;59977;48.782;9.190;2022-11-24T21:54:53;7.00;99.90
24632;DHT22;59977;48.782;9.190;2022-11-24T21:57:19;7.00;99.90
24632;DHT22;59977;48.782;9.190;2022-11-24T21:59:45;7.00;99.90
24632;DHT22;59977;48.782;9.190;2022-11-24T22:02:11;7.40;99.90
24632;DHT22;59977;48.782;9.190;2022-11-24T22:04:36;7.00;99.90
24632;DHT22;59977;48.782;9.190;2022-11-24T22:07:02;7.30;99.90
24632;DHT22;59977;48.782;9.190;2022-11-24T22:09:28;6.90;99.90
24632;DHT22;59977;48.782;9.190;2022-11-24T22:11:53;6.90;99.90
24632;DHT22;59977;48.782;9.190;2022-11-24T22:14:20;6.90;99.90
24632;DHT22;59977;48.782;9.190;2022-11-24T22:16:45;6.90;99.90
24632;DHT22;59977;48.782;9.190;2022-11-24T22:19:11;6.90;99.90
24632;DHT22;59977;48.782;9.190;2022-11-24T22:21:37;8.10;99.90
24632;DHT22;59977;48.782;9.190;2022-11-24T22:24:02;7.00;99.90
24632;DHT22;59977;48.782;9.190;2022-11-24T22:26:29;6.90;99.90
24632;DHT22;59977;48.782;9.190;2022-11-24T22:28:56;7.80;99.90
24632;DHT22;59977;48.782;9.190;2022-11-24T22:31:24;6.90;99.90
24632;DHT22;59977;48.782;9.190;2022-11-24T22:33:51;6.90;99.90
24632;DHT22;59977;48.782;9.190;2022-11-24T22:36:18;6.90;99.90
24632;DHT22;59977;48.782;9.190;2022-11-24T22:38:45;6.70;99.90
24632;DHT22;59977;48.782;9.190;2022-11-24T22:41:14;6.80;99.90
24632;DHT22;59977;48.782;9.190;2022-11-24T22:43:41;7.70;99.90
24632;DHT22;59977;48.782;9.190;2022-11-24T22:46:12;6.80;99.90
24632;DHT22;59977;48.782;9.190;2022-11-24T22:48:38;7.00;99.90
24632;DHT22;59977;48.782;9.190;2022-11-24T22:51:07;5.50;99.90
24632;DHT22;59977;48.782;9.190;2022-11-24T22:53:33;6.60;99.90
24632;DHT22;59977;48.782;9.190;2022-11-24T22:56:03;6.60;99.90
24632;DHT22;59977;48.782;9.190;2022-11-24T22:58:30;6.60;99.90
24632;DHT22;59977;48.782;9.190;2022-11-24T23:00:58;6.50;99.90
24632;DHT22;59977;48.782;9.190;2022-11-24T23:03:27;6.60;99.90
24632;DHT22;59977;48.782;9.190;2022-11-24T23:05:53;6.60;99.90
24632;DHT22;59977;48.782;9.190;2022-11-24T23:08:18;7.60;99.90
24632;DHT22;59977;48.782;9.190;2022-11-24T23:10:44;6.60;99.90
24632;DHT22;59977;48.782;9.190;2022-11-24T23:13:09;7.70;99.90
24632;DHT22;59977;48.782;9.190;2022-11-24T23:15:35;6.60;99.90
24632;DHT22;59977;48.782;9.190;2022-11-24T23:18:00;6.60;99.90
24632;DHT22;59977;48.782;9.190;2022-11-24T23:20:26;6.60;99.90
24632;DHT22;59977;48.782;9.190;2022-11-24T23:22:52;6.50;99.90
24632;DHT22;59977;48.782;9.190;2022-11-24T23:25:19;6.70;99.90
24632;DHT22;59977;48.782;9.190;2022-11-24T23:27:45;6.50;99.90
24632;DHT22;59977;48.782;9.190;2022-11-24T23:30:10;7.30;99.90
24632;DHT22;59977;48.782;9.190;2022-11-24T23:32:36;6.50;99.90
24632;DHT22;59977;48.782;9.190;2022-11-24T23:35:02;6.50;99.90
24632;DHT22;59977;48.782;9.190;2022-11-24T23:37:27;6.50;99.90
24632;DHT22;59977;48.782;9.190;2022-11-24T23:39:53;6.50;99.90
24632;DHT22;59977;48.782;9.190;2022-11-24T23:42:18;7.50;99.90
24632;DHT22;59977;48.782;9.190;2022-11-24T23:44:44;6.50;99.90
24632;DHT22;59977;48.782;9.190;2022-11-24T23:47:09;6.60;99.90
